sensor_id;sensor_type;location;lat;lon;timestamp;pressure;altitude;pressure_sealevel;temperature;humidity
7168;BME280;3625;51.762;14.320;2023-04-25T00:01:47;99755.00;;;7.44;100.00
7168;BME280;3625;51.762;14.320;2023-04-25T00:04:16;99755.13;;;7.38;100.00
7168;BME280;3625;51.762;14.320;2023-04-25T00:06:45;99756.19;;;7.30;100.00
7168;BME280;3625;51.762;14.320;2023-04-25T00:09:14;99750.19;;;7.23;100.00
7168;BME280;3625;51.762;14.320;2023-04-25T00:11:44;99761.59;;;7.22;100.00
7168;BME280;3625;51.762;14.320;2023-04-25T00:14:12;99755.44;;;7.23;100.00
7168;BME280;3625;51.762;14.320;2023-04-25T00:16:41;99753.72;;;7.22;100.00
7168;BME280;3625;51.762;14.320;2023-04-25T00:19:11;99750.94;;;7.28;100.00
7168;BME280;3625;51.762;14.320;2023-04-25T00:21:41;99745.63;;;7.33;100.00
7168;BME280;3625;51.762;14.320;2023-04-25T00:24:10;99740.34;;;7.33;100.00
7168;BME280;3625;51.762;14.320;2023-04-25T00:26:39;99750.00;;;7.32;100.00
7168;BME280;3625;51.762;14.320;2023-04-25T00:29:09;99752.66;;;7.31;100.00
7168;BME280;3625;51.762;14.320;2023-04-25T00:31:38;99756.19;;;7.30;100.00
7168;BME280;3625;51.762;14.320;2023-04-25T00:34:07;99748.28;;;7.30;100.00
7168;BME280;3625;51.762;14.320;2023-04-25T00:36:36;99754.59;;;7.23;100.00
7168;BME280;3625;51.762;14.320;2023-04-25T00:39:05;99759.97;;;7.16;100.00
7168;BME280;3625;51.762;14.320;2023-04-25T00:41:34;99699.38;;;6.76;100.00
7168;BME280;3625;51.762;14.320;2023-04-25T00:44:04;99748.88;;;7.01;100.00
7168;BME280;3625;51.762;14.320;2023-04-25T00:46:36;99753.41;;;6.93;100.00
7168;BME280;3625;51.762;14.320;2023-04-25T00:49:05;99755.25;;;6.89;100.00
7168;BME280;3625;51.762;14.320;2023-04-25T00:51:34;99759.66;;;6.87;100.00
7168;BME280;3625;51.762;14.320;2023-04-25T00:54:03;99760.53;;;6.88;100.00
7168;BME280;3625;51.762;14.320;2023-04-25T00:56:32;99757.16;;;6.79;100.00
7168;BME280;3625;51.762;14.320;2023-04-25T00:59:01;99749.44;;;6.70;100.00
7168;BME280;3625;51.762;14.320;2023-04-25T01:01:30;99752.19;;;6.64;100.00
7168;BME280;3625;51.762;14.320;2023-04-25T01:04:01;99754.88;;;6.61;100.00
7168;BME280;3625;51.762;14.320;2023-04-25T01:06:30;99761.00;;;6.60;100.00
7168;BME280;3625;51.762;14.320;2023-04-25T01:09:00;99756.81;;;6.50;100.00
7168;BME280;3625;51.762;14.320;2023-04-25T01:11:30;99756.03;;;6.43;100.00
7168;BME280;3625;51.762;14.320;2023-04-25T01:13:58;99751.69;;;6.41;100.00
7168;BME280;3625;51.762;14.320;2023-04-25T01:16:28;99754.44;;;6.35;100.00
7168;BME280;3625;51.762;14.320;2023-04-25T01:18:57;99747.50;;;6.31;100.00
7168;BME280;3625;51.762;14.320;2023-04-25T01:21:27;99751.19;;;6.21;100.00
7168;BME280;3625;51.762;14.320;2023-04-25T01:23:57;99744.25;;;6.15;100.00
7168;BME280;3625;51.762;14.320;2023-04-25T01:26:26;99743.38;;;6.15;100.00
7168;BME280;3625;51.762;14.320;2023-04-25T01:28:56;99748.56;;;6.19;100.00
7168;BME280;3625;51.762;14.320;2023-04-25T01:31:25;99756.50;;;6.15;100.00
7168;BME280;3625;51.762;14.320;2023-04-25T01:33:54;99750.47;;;6.10;100.00
7168;BME280;3625;51.762;14.320;2023-04-25T01:36:23;99752.31;;;6.04;100.00
7168;BME280;3625;51.762;14.320;2023-04-25T01:38:53;99754.13;;;5.99;100.00
7168;BME280;3625;51.762;14.320;2023-04-25T01:41:23;99759.31;;;6.04;100.00
7168;BME280;3625;51.762;14.320;2023-04-25T01:43:52;99754.88;;;6.07;100.00
7168;BME280;3625;51.762;14.320;2023-04-25T01:46:21;99759.19;;;6.12;100.00
7168;BME280;3625;51.762;14.320;2023-04-25T01:48:49;99761.81;;;6.12;100.00
7168;BME280;3625;51.762;14.320;2023-04-25T01:51:18;99757.59;;;6.03;100.00
7168;BME280;3625;51.762;14.320;2023-04-25T01:53:47;99759.34;;;6.01;100.00
7168;BME280;3625;51.762;14.320;2023-04-25T01:56:19;99755.94;;;5.96;100.00
7168;BME280;3625;51.762;14.320;2023-04-25T01:58:48;99759.53;;;5.87;100.00
7168;BME280;3625;51.762;14.320;2023-04-25T02:01:19;99758.69;;;5.84;100.00
7168;BME280;3625;51.762;14.320;2023-04-25T02:04:05;99762.19;;;5.84;100.00
7168;BME280;3625;51.762;14.320;2023-04-25T02:06:36;99760.44;;;5.86;100.00
7168;BME280;3625;51.762;14.320;2023-04-25T02:09:06;99760.38;;;5.91;100.00
7168;BME280;3625;51.762;14.320;2023-04-25T02:11:43;99750.66;;;5.97;100.00
7168;BME280;3625;51.762;14.320;2023-04-25T02:14:27;99749.59;;;6.09;100.00
7168;BME280;3625;51.762;14.320;2023-04-25T02:17:04;99759.06;;;6.21;100.00
7168;BME280;3625;51.762;14.320;2023-04-25T02:19:33;99756.22;;;6.31;100.00
7168;BME280;3625;51.762;14.320;2023-04-25T02:22:02;99752.53;;;6.43;100.00
7168;BME280;3625;51.762;14.320;2023-04-25T02:24:31;99757.59;;;6.55;100.00
7168;BME280;3625;51.762;14.320;2023-04-25T02:27:02;99760.81;;;6.72;100.00
7168;BME280;3625;51.762;14.320;2023-04-25T02:29:31;99758.91;;;6.80;100.00
7168;BME280;3625;51.762;14.320;2023-04-25T02:32:00;99760.53;;;6.88;100.00
7168;BME280;3625;51.762;14.320;2023-04-25T02:34:29;99752.50;;;6.94;100.00
7168;BME280;3625;51.762;14.320;2023-04-25T02:37:00;99752.47;;;6.97;100.00
7168;BME280;3625;51.762;14.320;2023-04-25T02:39:29;99757.78;;;6.92;100.00
7168;BME280;3625;51.762;14.320;2023-04-25T02:41:58;99759.69;;;6.84;100.00
7168;BME280;3625;51.762;14.320;2023-04-25T02:44:31;99760.81;;;6.71;100.00
7168;BME280;3625;51.762;14.320;2023-04-25T02:46:59;99759.19;;;6.65;100.00
7168;BME280;3625;51.762;14.320;2023-04-25T02:49:28;99752.19;;;6.64;100.00
7168;BME280;3625;51.762;14.320;2023-04-25T02:51:57;99755.63;;;6.66;100.00
7168;BME280;3625;51.762;14.320;2023-04-25T02:54:26;99752.06;;;6.70;100.00
7168;BME280;3625;51.762;14.320;2023-04-25T02:56:56;99740.66;;;6.71;100.00
7168;BME280;3625;51.762;14.320;2023-04-25T02:59:30;99745.03;;;6.72;100.00
7168;BME280;3625;51.762;14.320;2023-04-25T03:01:59;99740.66;;;6.71;100.00
7168;BME280;3625;51.762;14.320;2023-04-25T03:04:28;99742.44;;;6.69;100.00
7168;BME280;3625;51.762;14.320;2023-04-25T03:06:57;99737.19;;;6.69;100.00
7168;BME280;3625;51.762;14.320;2023-04-25T03:09:26;99744.16;;;6.72;100.00
7168;BME280;3625;51.762;14.320;2023-04-25T03:11:55;99748.31;;;6.83;100.00
7168;BME280;3625;51.762;14.320;2023-04-25T03:14:23;99745.63;;;6.87;100.00
7168;BME280;3625;51.762;14.320;2023-04-25T03:16:54;99742.06;;;6.91;100.00
7168;BME280;3625;51.762;14.320;2023-04-25T03:19:23;99742.84;;;6.96;100.00
7168;BME280;3625;51.762;14.320;2023-04-25T03:21:51;99742.75;;;7.00;100.00
7168;BME280;3625;51.762;14.320;2023-04-25T03:24:21;99739.19;;;7.03;100.00
7168;BME280;3625;51.762;14.320;2023-04-25T03:26:50;99743.53;;;7.05;100.00
7168;BME280;3625;51.762;14.320;2023-04-25T03:29:21;99752.28;;;7.06;100.00
7168;BME280;3625;51.762;14.320;2023-04-25T03:31:56;99747.06;;;7.03;100.00
7168;BME280;3625;51.762;14.320;2023-04-25T03:34:25;99747.16;;;7.00;100.00
7168;BME280;3625;51.762;14.320;2023-04-25T03:36:55;99739.34;;;6.95;100.00
7168;BME280;3625;51.762;14.320;2023-04-25T03:39:23;99749.06;;;6.92;100.00
7168;BME280;3625;51.762;14.320;2023-04-25T03:41:53;99743.97;;;6.82;100.00
7168;BME280;3625;51.762;14.320;2023-04-25T03:44:22;99743.38;;;6.67;100.00
7168;BME280;3625;51.762;14.320;2023-04-25T03:46:54;99745.38;;;6.53;100.00
7168;BME280;3625;51.762;14.320;2023-04-25T03:49:24;99749.97;;;6.40;100.00
7168;BME280;3625;51.762;14.320;2023-04-25T03:51:58;99750.16;;;6.31;100.00
7168;BME280;3625;51.762;14.320;2023-04-25T03:54:30;99747.72;;;6.17;100.00
7168;BME280;3625;51.762;14.320;2023-04-25T03:57:05;99741.66;;;6.14;100.00
7168;BME280;3625;51.762;14.320;2023-04-25T03:59:37;99742.56;;;6.11;100.00
7168;BME280;3625;51.762;14.320;2023-04-25T04:02:11;99746.97;;;6.11;100.00
7168;BME280;3625;51.762;14.320;2023-04-25T04:04:40;99741.72;;;6.09;100.00
7168;BME280;3625;51.762;14.320;2023-04-25T04:07:12;99740.94;;;6.04;100.00
7168;BME280;3625;51.762;14.320;2023-04-25T04:09:43;99744.50;;;6.00;100.00
7168;BME280;3625;51.762;14.320;2023-04-25T04:12:18;99740.13;;;5.99;100.00
7168;BME280;3625;51.762;14.320;2023-04-25T04:14:47;99741.88;;;5.98;100.00
7168;BME280;3625;51.762;14.320;2023-04-25T04:17:17;99744.50;;;5.98;100.00
7168;BME280;3625;51.762;14.320;2023-04-25T04:19:46;99748.84;;;6.01;100.00
7168;BME280;3625;51.762;14.320;2023-04-25T04:22:18;99752.31;;;6.04;100.00
7168;BME280;3625;51.762;14.320;2023-04-25T04:24:48;99750.50;;;6.06;100.00
7168;BME280;3625;51.762;14.320;2023-04-25T04:27:23;99755.69;;;6.13;100.00
7168;BME280;3625;51.762;14.320;2023-04-25T04:30:08;99752.97;;;6.17;100.00
7168;BME280;3625;51.762;14.320;2023-04-25T04:32:54;99755.47;;;6.25;100.00
7168;BME280;3625;51.762;14.320;2023-04-25T04:35:23;99765.91;;;6.29;100.00
7168;BME280;3625;51.762;14.320;2023-04-25T04:37:52;99756.19;;;6.34;100.00
7168;BME280;3625;51.762;14.320;2023-04-25T04:40:27;99760.47;;;6.40;100.00
7168;BME280;3625;51.762;14.320;2023-04-25T04:43:20;99762.06;;;6.50;100.00
7168;BME280;3625;51.762;14.320;2023-04-25T04:46:02;99756.47;;;6.68;100.00
7168;BME280;3625;51.762;14.320;2023-04-25T04:48:33;99756.41;;;6.74;100.00
7168;BME280;3625;51.762;14.320;2023-04-25T04:51:23;99752.72;;;6.83;100.00
7168;BME280;3625;51.762;14.320;2023-04-25T04:53:54;99758.63;;;6.96;100.00
7168;BME280;3625;51.762;14.320;2023-04-25T04:56:48;99760.22;;;7.03;100.00
7168;BME280;3625;51.762;14.320;2023-04-25T04:59:28;99760.00;;;7.15;100.00
7168;BME280;3625;51.762;14.320;2023-04-25T05:02:08;99766.84;;;7.24;100.00
7168;BME280;3625;51.762;14.320;2023-04-25T05:04:51;99768.25;;;7.40;100.00
7168;BME280;3625;51.762;14.320;2023-04-25T05:07:39;99767.16;;;7.51;100.00
7168;BME280;3625;51.762;14.320;2023-04-25T05:10:26;99771.19;;;7.68;100.00
7168;BME280;3625;51.762;14.320;2023-04-25T05:13:13;99766.47;;;7.82;100.00
7168;BME280;3625;51.762;14.320;2023-04-25T05:16:04;99771.53;;;7.91;100.00
7168;BME280;3625;51.762;14.320;2023-04-25T05:19:09;99770.38;;;8.04;100.00
7168;BME280;3625;51.762;14.320;2023-04-25T05:21:53;99773.59;;;8.17;100.00
7168;BME280;3625;51.762;14.320;2023-04-25T05:24:31;99782.19;;;8.23;100.00
7168;BME280;3625;51.762;14.320;2023-04-25T05:27:16;99777.72;;;8.28;100.00
7168;BME280;3625;51.762;14.320;2023-04-25T05:30:06;99782.06;;;8.29;100.00
7168;BME280;3625;51.762;14.320;2023-04-25T05:32:54;99791.69;;;8.30;100.00
7168;BME280;3625;51.762;14.320;2023-04-25T05:35:23;99785.47;;;8.36;100.00
7168;BME280;3625;51.762;14.320;2023-04-25T05:37:53;99776.47;;;8.45;100.00
7168;BME280;3625;51.762;14.320;2023-04-25T05:40:35;99778.88;;;8.54;100.00
7168;BME280;3625;51.762;14.320;2023-04-25T05:43:16;99792.56;;;8.68;100.00
7168;BME280;3625;51.762;14.320;2023-04-25T05:45:59;99781.81;;;8.76;100.00
7168;BME280;3625;51.762;14.320;2023-04-25T05:48:41;99782.66;;;8.78;100.00
7168;BME280;3625;51.762;14.320;2023-04-25T05:51:32;99786.22;;;8.75;100.00
7168;BME280;3625;51.762;14.320;2023-04-25T05:54:21;99796.75;;;8.77;100.00
7168;BME280;3625;51.762;14.320;2023-04-25T05:56:51;99792.38;;;8.76;100.00
7168;BME280;3625;51.762;14.320;2023-04-25T05:59:21;99794.88;;;8.82;100.00
7168;BME280;3625;51.762;14.320;2023-04-25T06:01:50;99796.34;;;8.92;99.17
7168;BME280;3625;51.762;14.320;2023-04-25T06:04:25;99792.41;;;9.08;99.13
7168;BME280;3625;51.762;14.320;2023-04-25T06:06:57;99798.56;;;9.39;95.39
7168;BME280;3625;51.762;14.320;2023-04-25T06:09:28;99797.28;;;9.83;89.79
7168;BME280;3625;51.762;14.320;2023-04-25T06:12:11;99798.13;;;10.13;89.08
7168;BME280;3625;51.762;14.320;2023-04-25T06:14:40;99809.47;;;10.46;85.80
7168;BME280;3625;51.762;14.320;2023-04-25T06:17:09;99807.94;;;10.66;84.99
7168;BME280;3625;51.762;14.320;2023-04-25T06:19:38;99810.44;;;10.70;85.19
7168;BME280;3625;51.762;14.320;2023-04-25T06:22:09;99805.50;;;10.59;83.49
7168;BME280;3625;51.762;14.320;2023-04-25T06:24:42;99813.44;;;10.59;81.72
7168;BME280;3625;51.762;14.320;2023-04-25T06:27:12;99803.06;;;10.80;82.26
7168;BME280;3625;51.762;14.320;2023-04-25T06:29:43;99809.72;;;11.16;82.43
7168;BME280;3625;51.762;14.320;2023-04-25T06:32:14;99814.91;;;11.19;75.80
7168;BME280;3625;51.762;14.320;2023-04-25T06:34:43;99816.28;;;11.06;76.20
7168;BME280;3625;51.762;14.320;2023-04-25T06:37:13;99816.19;;;11.08;77.22
7168;BME280;3625;51.762;14.320;2023-04-25T06:39:43;99819.25;;;11.22;75.37
7168;BME280;3625;51.762;14.320;2023-04-25T06:42:15;99828.00;;;11.49;73.07
7168;BME280;3625;51.762;14.320;2023-04-25T06:44:55;99820.50;;;11.60;71.18
7168;BME280;3625;51.762;14.320;2023-04-25T06:47:24;99828.63;;;11.80;71.02
7168;BME280;3625;51.762;14.320;2023-04-25T06:49:53;99824.44;;;11.73;69.57
7168;BME280;3625;51.762;14.320;2023-04-25T06:52:22;99823.75;;;11.68;68.39
7168;BME280;3625;51.762;14.320;2023-04-25T06:54:54;99831.63;;;11.69;67.74
7168;BME280;3625;51.762;14.320;2023-04-25T06:57:41;99825.81;;;11.60;67.97
7168;BME280;3625;51.762;14.320;2023-04-25T07:00:29;99835.03;;;11.50;69.93
7168;BME280;3625;51.762;14.320;2023-04-25T07:02:59;99819.78;;;11.31;70.14
7168;BME280;3625;51.762;14.320;2023-04-25T07:05:28;99822.03;;;11.17;71.21
7168;BME280;3625;51.762;14.320;2023-04-25T07:07:58;99819.63;;;11.11;71.90
7168;BME280;3625;51.762;14.320;2023-04-25T07:10:29;99830.53;;;11.02;72.36
7168;BME280;3625;51.762;14.320;2023-04-25T07:12:58;99819.44;;;10.91;73.06
7168;BME280;3625;51.762;14.320;2023-04-25T07:15:27;99826.66;;;10.86;75.17
7168;BME280;3625;51.762;14.320;2023-04-25T07:17:58;99826.19;;;10.73;73.82
7168;BME280;3625;51.762;14.320;2023-04-25T07:20:27;99823.72;;;10.69;74.04
7168;BME280;3625;51.762;14.320;2023-04-25T07:22:56;99829.66;;;10.75;74.87
7168;BME280;3625;51.762;14.320;2023-04-25T07:25:25;99825.44;;;10.70;74.08
7168;BME280;3625;51.762;14.320;2023-04-25T07:27:56;99819.94;;;10.76;74.76
7168;BME280;3625;51.762;14.320;2023-04-25T07:30:26;99824.56;;;10.95;73.79
7168;BME280;3625;51.762;14.320;2023-04-25T07:32:55;99836.97;;;11.20;72.71
7168;BME280;3625;51.762;14.320;2023-04-25T07:35:25;99830.25;;;11.34;70.96
7168;BME280;3625;51.762;14.320;2023-04-25T07:37:53;99836.06;;;11.46;70.61
7168;BME280;3625;51.762;14.320;2023-04-25T07:40:24;99835.66;;;12.04;66.88
7168;BME280;3625;51.762;14.320;2023-04-25T07:42:58;99845.56;;;12.23;63.97
7168;BME280;3625;51.762;14.320;2023-04-25T07:45:34;99840.84;;;12.53;64.19
7168;BME280;3625;51.762;14.320;2023-04-25T07:48:04;99851.44;;;12.31;62.00
7168;BME280;3625;51.762;14.320;2023-04-25T07:50:36;99857.91;;;12.00;63.05
7168;BME280;3625;51.762;14.320;2023-04-25T07:53:05;99849.31;;;11.94;63.97
7168;BME280;3625;51.762;14.320;2023-04-25T07:55:42;99850.41;;;12.12;64.78
7168;BME280;3625;51.762;14.320;2023-04-25T07:58:19;99848.59;;;12.35;63.46
7168;BME280;3625;51.762;14.320;2023-04-25T08:00:56;99849.94;;;12.24;63.45
7168;BME280;3625;51.762;14.320;2023-04-25T08:03:45;99845.66;;;12.43;63.24
7168;BME280;3625;51.762;14.320;2023-04-25T08:06:21;99845.53;;;12.68;62.04
7168;BME280;3625;51.762;14.320;2023-04-25T08:09:02;99853.50;;;13.32;59.30
7168;BME280;3625;51.762;14.320;2023-04-25T08:11:38;99853.19;;;13.78;57.36
7168;BME280;3625;51.762;14.320;2023-04-25T08:14:10;99859.91;;;13.67;55.69
7168;BME280;3625;51.762;14.320;2023-04-25T08:16:40;99872.47;;;13.43;55.80
7168;BME280;3625;51.762;14.320;2023-04-25T08:19:10;99864.75;;;13.16;57.22
7168;BME280;3625;51.762;14.320;2023-04-25T08:21:38;99863.84;;;13.17;57.65
7168;BME280;3625;51.762;14.320;2023-04-25T08:24:12;99876.88;;;13.02;58.32
7168;BME280;3625;51.762;14.320;2023-04-25T08:26:41;99875.19;;;12.99;59.02
7168;BME280;3625;51.762;14.320;2023-04-25T08:29:16;99872.69;;;12.96;58.28
7168;BME280;3625;51.762;14.320;2023-04-25T08:31:45;99874.22;;;12.80;58.29
7168;BME280;3625;51.762;14.320;2023-04-25T08:34:14;99864.34;;;13.05;58.55
7168;BME280;3625;51.762;14.320;2023-04-25T08:36:47;99873.34;;;13.64;56.77
7168;BME280;3625;51.762;14.320;2023-04-25T08:39:35;99874.78;;;13.91;52.64
7168;BME280;3625;51.762;14.320;2023-04-25T08:42:22;99880.13;;;13.71;53.36
7168;BME280;3625;51.762;14.320;2023-04-25T08:44:53;99880.28;;;13.47;53.95
7168;BME280;3625;51.762;14.320;2023-04-25T08:47:27;99894.94;;;13.36;54.22
7168;BME280;3625;51.762;14.320;2023-04-25T08:49:59;99884.41;;;12.91;55.80
7168;BME280;3625;51.762;14.320;2023-04-25T08:52:30;99885.28;;;12.69;57.29
7168;BME280;3625;51.762;14.320;2023-04-25T08:55:02;99900.22;;;12.94;56.82
7168;BME280;3625;51.762;14.320;2023-04-25T08:57:34;99896.97;;;13.49;54.94
7168;BME280;3625;51.762;14.320;2023-04-25T09:00:05;99893.88;;;13.80;52.54
7168;BME280;3625;51.762;14.320;2023-04-25T09:02:38;99905.41;;;14.00;52.27
7168;BME280;3625;51.762;14.320;2023-04-25T09:05:09;99903.16;;;13.90;52.24
7168;BME280;3625;51.762;14.320;2023-04-25T09:07:38;99908.63;;;13.87;52.62
7168;BME280;3625;51.762;14.320;2023-04-25T09:10:08;99914.56;;;13.74;52.03
7168;BME280;3625;51.762;14.320;2023-04-25T09:12:38;99922.41;;;13.56;53.70
7168;BME280;3625;51.762;14.320;2023-04-25T09:15:11;99922.97;;;13.43;54.75
7168;BME280;3625;51.762;14.320;2023-04-25T09:18:08;99923.38;;;13.12;55.41
7168;BME280;3625;51.762;14.320;2023-04-25T09:20:42;99931.38;;;13.10;55.28
7168;BME280;3625;51.762;14.320;2023-04-25T09:23:30;99916.50;;;13.28;56.07
7168;BME280;3625;51.762;14.320;2023-04-25T09:26:00;99922.50;;;13.53;54.26
7168;BME280;3625;51.762;14.320;2023-04-25T09:28:29;99914.44;;;13.95;53.33
7168;BME280;3625;51.762;14.320;2023-04-25T09:31:02;99927.81;;;13.94;52.13
7168;BME280;3625;51.762;14.320;2023-04-25T09:33:37;99930.03;;;13.64;53.36
7168;BME280;3625;51.762;14.320;2023-04-25T09:36:09;99930.72;;;13.27;54.64
7168;BME280;3625;51.762;14.320;2023-04-25T09:38:48;99929.00;;;13.26;55.90
7168;BME280;3625;51.762;14.320;2023-04-25T09:41:29;99931.69;;;13.25;55.47
7168;BME280;3625;51.762;14.320;2023-04-25T09:44:01;99929.13;;;13.23;55.27
7168;BME280;3625;51.762;14.320;2023-04-25T09:46:36;99930.59;;;13.30;56.25
7168;BME280;3625;51.762;14.320;2023-04-25T09:49:15;99929.47;;;13.36;54.89
7168;BME280;3625;51.762;14.320;2023-04-25T09:52:18;99930.91;;;13.65;54.85
7168;BME280;3625;51.762;14.320;2023-04-25T09:54:57;99936.50;;;14.18;52.02
7168;BME280;3625;51.762;14.320;2023-04-25T09:57:32;99929.28;;;14.20;51.25
7168;BME280;3625;51.762;14.320;2023-04-25T10:00:01;99945.44;;;13.96;51.37
7168;BME280;3625;51.762;14.320;2023-04-25T10:02:43;99948.59;;;13.66;52.19
7168;BME280;3625;51.762;14.320;2023-04-25T10:05:30;99943.31;;;13.84;51.81
7168;BME280;3625;51.762;14.320;2023-04-25T10:08:02;99868.00;;;14.42;51.35
7168;BME280;3625;51.762;14.320;2023-04-25T10:10:32;99953.00;;;15.73;49.52
7168;BME280;3625;51.762;14.320;2023-04-25T10:13:05;99955.41;;;15.77;47.72
7168;BME280;3625;51.762;14.320;2023-04-25T10:15:35;99947.28;;;15.27;49.33
7168;BME280;3625;51.762;14.320;2023-04-25T10:18:08;99954.38;;;15.09;50.16
7168;BME280;3625;51.762;14.320;2023-04-25T10:20:37;99958.16;;;14.87;51.27
7168;BME280;3625;51.762;14.320;2023-04-25T10:23:11;99963.59;;;15.02;50.50
7168;BME280;3625;51.762;14.320;2023-04-25T10:25:42;99969.06;;;14.62;51.58
7168;BME280;3625;51.762;14.320;2023-04-25T10:28:11;99979.00;;;14.40;53.59
7168;BME280;3625;51.762;14.320;2023-04-25T10:30:57;99984.91;;;13.85;56.53
7168;BME280;3625;51.762;14.320;2023-04-25T10:33:33;99974.09;;;13.70;59.35
7168;BME280;3625;51.762;14.320;2023-04-25T10:36:10;99988.59;;;13.41;60.98
7168;BME280;3625;51.762;14.320;2023-04-25T10:38:39;99971.75;;;13.62;61.13
7168;BME280;3625;51.762;14.320;2023-04-25T10:41:11;99984.47;;;13.96;60.81
7168;BME280;3625;51.762;14.320;2023-04-25T10:43:41;99991.78;;;13.71;60.33
7168;BME280;3625;51.762;14.320;2023-04-25T10:46:17;100001.56;;;13.05;64.38
7168;BME280;3625;51.762;14.320;2023-04-25T10:48:49;99997.28;;;13.01;61.91
7168;BME280;3625;51.762;14.320;2023-04-25T10:51:23;99995.69;;;12.97;64.39
7168;BME280;3625;51.762;14.320;2023-04-25T10:54:00;99985.06;;;12.97;67.12
7168;BME280;3625;51.762;14.320;2023-04-25T10:56:30;99990.84;;;12.84;68.45
7168;BME280;3625;51.762;14.320;2023-04-25T10:59:07;99977.59;;;12.61;69.87
7168;BME280;3625;51.762;14.320;2023-04-25T11:01:39;99985.28;;;13.14;68.46
7168;BME280;3625;51.762;14.320;2023-04-25T11:04:21;99971.28;;;13.93;65.85
7168;BME280;3625;51.762;14.320;2023-04-25T11:07:16;99983.25;;;13.63;62.22
7168;BME280;3625;51.762;14.320;2023-04-25T11:09:50;99998.03;;;13.04;67.68
7168;BME280;3625;51.762;14.320;2023-04-25T11:12:19;99981.41;;;12.77;71.16
7168;BME280;3625;51.762;14.320;2023-04-25T11:14:48;99996.81;;;13.13;69.78
7168;BME280;3625;51.762;14.320;2023-04-25T11:17:17;99986.25;;;13.33;69.35
7168;BME280;3625;51.762;14.320;2023-04-25T11:19:48;99987.06;;;13.35;69.88
7168;BME280;3625;51.762;14.320;2023-04-25T11:22:17;99993.34;;;13.33;66.44
7168;BME280;3625;51.762;14.320;2023-04-25T11:24:47;99984.56;;;13.52;67.02
7168;BME280;3625;51.762;14.320;2023-04-25T11:27:16;99986.25;;;13.95;62.82
7168;BME280;3625;51.762;14.320;2023-04-25T11:29:45;99998.16;;;14.07;60.57
7168;BME280;3625;51.762;14.320;2023-04-25T11:32:17;100002.88;;;13.80;57.86
7168;BME280;3625;51.762;14.320;2023-04-25T11:34:49;100001.69;;;13.45;57.46
7168;BME280;3625;51.762;14.320;2023-04-25T11:37:18;99999.97;;;13.44;58.73
7168;BME280;3625;51.762;14.320;2023-04-25T11:39:47;100002.28;;;13.32;61.21
7168;BME280;3625;51.762;14.320;2023-04-25T11:42:17;100006.25;;;13.42;60.81
7168;BME280;3625;51.762;14.320;2023-04-25T11:44:48;100011.75;;;13.59;61.00
7168;BME280;3625;51.762;14.320;2023-04-25T11:47:19;100014.59;;;13.33;57.87
7168;BME280;3625;51.762;14.320;2023-04-25T11:49:50;100021.47;;;12.93;59.66
7168;BME280;3625;51.762;14.320;2023-04-25T11:52:21;100019.25;;;12.59;61.76
7168;BME280;3625;51.762;14.320;2023-04-25T11:54:50;100018.91;;;12.45;62.91
7168;BME280;3625;51.762;14.320;2023-04-25T11:57:19;100020.59;;;12.46;63.14
7168;BME280;3625;51.762;14.320;2023-04-25T11:59:49;100024.16;;;12.70;61.00
7168;BME280;3625;51.762;14.320;2023-04-25T12:02:24;100032.16;;;13.15;58.38
7168;BME280;3625;51.762;14.320;2023-04-25T12:04:59;100039.03;;;12.97;57.78
7168;BME280;3625;51.762;14.320;2023-04-25T12:07:48;100034.38;;;12.32;55.06
7168;BME280;3625;51.762;14.320;2023-04-25T12:10:18;100037.94;;;11.82;57.01
7168;BME280;3625;51.762;14.320;2023-04-25T12:12:48;100041.88;;;11.68;57.68
7168;BME280;3625;51.762;14.320;2023-04-25T12:15:18;100044.97;;;11.56;57.71
7168;BME280;3625;51.762;14.320;2023-04-25T12:17:48;100046.00;;;11.51;57.14
7168;BME280;3625;51.762;14.320;2023-04-25T12:20:20;100012.66;;;11.17;57.45
7168;BME280;3625;51.762;14.320;2023-04-25T12:22:51;100050.69;;;11.43;58.90
7168;BME280;3625;51.762;14.320;2023-04-25T12:25:37;100043.56;;;11.71;57.55
7168;BME280;3625;51.762;14.320;2023-04-25T12:28:18;100056.66;;;11.77;55.59
7168;BME280;3625;51.762;14.320;2023-04-25T12:30:58;100056.34;;;11.86;55.13
7168;BME280;3625;51.762;14.320;2023-04-25T12:33:29;100059.13;;;12.08;54.95
7168;BME280;3625;51.762;14.320;2023-04-25T12:36:00;100061.88;;;12.05;53.68
7168;BME280;3625;51.762;14.320;2023-04-25T12:38:36;100065.88;;;12.41;52.90
7168;BME280;3625;51.762;14.320;2023-04-25T12:41:05;100068.28;;;12.72;50.38
7168;BME280;3625;51.762;14.320;2023-04-25T12:43:35;100074.63;;;12.92;48.56
7168;BME280;3625;51.762;14.320;2023-04-25T12:46:04;100083.31;;;13.20;48.38
7168;BME280;3625;51.762;14.320;2023-04-25T12:48:33;100080.75;;;13.40;47.76
7168;BME280;3625;51.762;14.320;2023-04-25T12:51:03;100073.88;;;13.56;47.29
7168;BME280;3625;51.762;14.320;2023-04-25T12:53:32;100074.78;;;13.99;47.49
7168;BME280;3625;51.762;14.320;2023-04-25T12:56:05;100060.09;;;14.51;46.57
7168;BME280;3625;51.762;14.320;2023-04-25T12:58:34;100071.44;;;14.75;45.27
7168;BME280;3625;51.762;14.320;2023-04-25T13:01:03;100016.44;;;14.15;44.82
7168;BME280;3625;51.762;14.320;2023-04-25T13:03:32;100072.28;;;13.94;45.57
7168;BME280;3625;51.762;14.320;2023-04-25T13:06:04;100073.03;;;13.98;46.18
7168;BME280;3625;51.762;14.320;2023-04-25T13:08:33;100082.59;;;14.02;45.31
7168;BME280;3625;51.762;14.320;2023-04-25T13:11:02;100083.94;;;14.12;44.66
7168;BME280;3625;51.762;14.320;2023-04-25T13:13:32;100082.34;;;14.28;43.76
7168;BME280;3625;51.762;14.320;2023-04-25T13:16:01;100084.31;;;14.45;43.78
7168;BME280;3625;51.762;14.320;2023-04-25T13:18:31;100082.91;;;14.57;43.41
7168;BME280;3625;51.762;14.320;2023-04-25T13:21:00;100084.31;;;14.45;43.21
7168;BME280;3625;51.762;14.320;2023-04-25T13:23:31;100088.75;;;14.45;43.71
7168;BME280;3625;51.762;14.320;2023-04-25T13:26:00;100084.53;;;14.41;43.58
7168;BME280;3625;51.762;14.320;2023-04-25T13:28:29;100090.72;;;13.99;43.67
7168;BME280;3625;51.762;14.320;2023-04-25T13:30:58;100095.31;;;13.52;44.39
7168;BME280;3625;51.762;14.320;2023-04-25T13:33:27;100088.13;;;13.32;45.48
7168;BME280;3625;51.762;14.320;2023-04-25T13:35:55;100084.63;;;13.53;45.72
7168;BME280;3625;51.762;14.320;2023-04-25T13:38:25;100086.97;;;13.61;45.23
7168;BME280;3625;51.762;14.320;2023-04-25T13:40:55;100093.16;;;13.40;45.39